sensor_id;sensor_type;location;lat;lon;timestamp;P1;durP1;ratioP1;P2;durP2;ratioP2
56161;SDS011;42045;52.986;6.014;2023-06-26T00:02:18;13.90;;;12.60;;
56161;SDS011;42045;52.986;6.014;2023-06-26T00:04:44;15.35;;;13.60;;
56161;SDS011;42045;52.986;6.014;2023-06-26T00:07:10;14.82;;;13.50;;
56161;SDS011;42045;52.986;6.014;2023-06-26T00:09:36;14.48;;;12.98;;
56161;SDS011;42045;52.986;6.014;2023-06-26T00:12:01;13.88;;;12.57;;
56161;SDS011;42045;52.986;6.014;2023-06-26T00:14:27;14.23;;;12.93;;
56161;SDS011;42045;52.986;6.014;2023-06-26T00:16:53;16.02;;;14.38;;
56161;SDS011;42045;52.986;6.014;2023-06-26T00:19:19;14.32;;;13.13;;
56161;SDS011;42045;52.986;6.014;2023-06-26T00:21:44;14.25;;;12.95;;
56161;SDS011;42045;52.986;6.014;2023-06-26T00:24:15;15.90;;;14.40;;
56161;SDS011;42045;52.986;6.014;2023-06-26T00:26:42;15.13;;;13.18;;
56161;SDS011;42045;52.986;6.014;2023-06-26T00:29:08;14.95;;;13.45;;
56161;SDS011;42045;52.986;6.014;2023-06-26T00:31:34;15.80;;;14.25;;
56161;SDS011;42045;52.986;6.014;2023-06-26T00:34:03;14.40;;;13.10;;
56161;SDS011;42045;52.986;6.014;2023-06-26T00:36:29;14.65;;;13.45;;
56161;SDS011;42045;52.986;6.014;2023-06-26T00:38:54;16.00;;;14.60;;
56161;SDS011;42045;52.986;6.014;2023-06-26T00:41:20;16.95;;;15.35;;
56161;SDS011;42045;52.986;6.014;2023-06-26T00:43:46;15.57;;;14.27;;
56161;SDS011;42045;52.986;6.014;2023-06-26T00:46:14;15.68;;;14.15;;
56161;SDS011;42045;52.986;6.014;2023-06-26T00:48:42;15.93;;;14.48;;
56161;SDS011;42045;52.986;6.014;2023-06-26T00:51:08;16.48;;;14.77;;
56161;SDS011;42045;52.986;6.014;2023-06-26T00:53:35;15.93;;;14.43;;
56161;SDS011;42045;52.986;6.014;2023-06-26T00:56:04;14.75;;;13.35;;
56161;SDS011;42045;52.986;6.014;2023-06-26T00:58:30;15.63;;;14.13;;
56161;SDS011;42045;52.986;6.014;2023-06-26T01:00:56;15.48;;;14.18;;
56161;SDS011;42045;52.986;6.014;2023-06-26T01:03:23;15.23;;;13.77;;
56161;SDS011;42045;52.986;6.014;2023-06-26T01:05:50;15.18;;;13.88;;
56161;SDS011;42045;52.986;6.014;2023-06-26T01:08:23;14.82;;;13.52;;
56161;SDS011;42045;52.986;6.014;2023-06-26T01:10:50;14.30;;;12.80;;
56161;SDS011;42045;52.986;6.014;2023-06-26T01:13:16;14.18;;;12.98;;
56161;SDS011;42045;52.986;6.014;2023-06-26T01:15:42;15.10;;;13.80;;
56161;SDS011;42045;52.986;6.014;2023-06-26T01:18:08;16.42;;;14.88;;
56161;SDS011;42045;52.986;6.014;2023-06-26T01:20:35;16.75;;;15.23;;
56161;SDS011;42045;52.986;6.014;2023-06-26T01:28:35;16.67;;;15.15;;
56161;SDS011;42045;52.986;6.014;2023-06-26T01:31:05;16.45;;;14.93;;
56161;SDS011;42045;52.986;6.014;2023-06-26T01:33:32;16.02;;;14.63;;
56161;SDS011;42045;52.986;6.014;2023-06-26T01:35:58;15.65;;;14.25;;
56161;SDS011;42045;52.986;6.014;2023-06-26T01:38:23;16.23;;;14.82;;
56161;SDS011;42045;52.986;6.014;2023-06-26T01:40:50;16.52;;;15.13;;
56161;SDS011;42045;52.986;6.014;2023-06-26T01:46:09;19.92;;;18.23;;
56161;SDS011;42045;52.986;6.014;2023-06-26T01:49:06;19.92;;;18.05;;
56161;SDS011;42045;52.986;6.014;2023-06-26T01:51:35;19.40;;;17.75;;
56161;SDS011;42045;52.986;6.014;2023-06-26T01:54:08;18.77;;;17.23;;
56161;SDS011;42045;52.986;6.014;2023-06-26T01:56:39;18.58;;;17.08;;
56161;SDS011;42045;52.986;6.014;2023-06-26T01:59:07;19.25;;;17.42;;
56161;SDS011;42045;52.986;6.014;2023-06-26T02:01:34;18.73;;;17.02;;
56161;SDS011;42045;52.986;6.014;2023-06-26T02:03:59;19.40;;;17.52;;
56161;SDS011;42045;52.986;6.014;2023-06-26T02:06:25;18.05;;;16.48;;
56161;SDS011;42045;52.986;6.014;2023-06-26T02:08:51;18.40;;;16.75;;
56161;SDS011;42045;52.986;6.014;2023-06-26T02:11:16;17.48;;;15.98;;
56161;SDS011;42045;52.986;6.014;2023-06-26T02:13:42;18.33;;;16.70;;
56161;SDS011;42045;52.986;6.014;2023-06-26T02:16:07;18.75;;;17.10;;
56161;SDS011;42045;52.986;6.014;2023-06-26T02:18:33;17.00;;;15.55;;
56161;SDS011;42045;52.986;6.014;2023-06-26T02:20:59;18.60;;;16.98;;
56161;SDS011;42045;52.986;6.014;2023-06-26T02:23:25;19.45;;;17.60;;
56161;SDS011;42045;52.986;6.014;2023-06-26T02:25:50;18.17;;;16.38;;
56161;SDS011;42045;52.986;6.014;2023-06-26T02:28:16;18.58;;;16.98;;
56161;SDS011;42045;52.986;6.014;2023-06-26T02:30:42;18.60;;;17.00;;
56161;SDS011;42045;52.986;6.014;2023-06-26T02:33:07;17.67;;;16.17;;
56161;SDS011;42045;52.986;6.014;2023-06-26T02:35:33;18.23;;;16.70;;
56161;SDS011;42045;52.986;6.014;2023-06-26T02:37:59;16.88;;;15.48;;
56161;SDS011;42045;52.986;6.014;2023-06-26T02:40:24;18.77;;;16.55;;
56161;SDS011;42045;52.986;6.014;2023-06-26T02:42:50;16.60;;;15.20;;
56161;SDS011;42045;52.986;6.014;2023-06-26T02:45:15;19.27;;;17.45;;
56161;SDS011;42045;52.986;6.014;2023-06-26T02:47:41;18.70;;;17.00;;
56161;SDS011;42045;52.986;6.014;2023-06-26T02:50:07;17.88;;;16.27;;
56161;SDS011;42045;52.986;6.014;2023-06-26T02:52:33;18.15;;;16.30;;
56161;SDS011;42045;52.986;6.014;2023-06-26T02:54:58;17.80;;;16.20;;
56161;SDS011;42045;52.986;6.014;2023-06-26T02:57:24;16.05;;;14.30;;
56161;SDS011;42045;52.986;6.014;2023-06-26T02:59:50;15.07;;;13.43;;
56161;SDS011;42045;52.986;6.014;2023-06-26T03:02:15;13.93;;;12.02;;
56161;SDS011;42045;52.986;6.014;2023-06-26T03:04:41;14.05;;;12.13;;
56161;SDS011;42045;52.986;6.014;2023-06-26T03:07:08;12.30;;;11.10;;
56161;SDS011;42045;52.986;6.014;2023-06-26T03:09:33;11.35;;;10.25;;
56161;SDS011;42045;52.986;6.014;2023-06-26T03:11:59;13.30;;;10.95;;
56161;SDS011;42045;52.986;6.014;2023-06-26T03:14:25;13.48;;;12.10;;
56161;SDS011;42045;52.986;6.014;2023-06-26T03:16:52;11.23;;;9.98;;
56161;SDS011;42045;52.986;6.014;2023-06-26T03:19:18;14.73;;;10.15;;
56161;SDS011;42045;52.986;6.014;2023-06-26T03:21:43;11.95;;;10.15;;
56161;SDS011;42045;52.986;6.014;2023-06-26T03:24:09;14.05;;;11.10;;
56161;SDS011;42045;52.986;6.014;2023-06-26T03:26:35;13.20;;;10.98;;
56161;SDS011;42045;52.986;6.014;2023-06-26T03:29:00;12.45;;;9.90;;
56161;SDS011;42045;52.986;6.014;2023-06-26T03:31:26;11.30;;;10.07;;
56161;SDS011;42045;52.986;6.014;2023-06-26T03:33:52;13.93;;;10.25;;
56161;SDS011;42045;52.986;6.014;2023-06-26T03:36:17;13.35;;;9.73;;
56161;SDS011;42045;52.986;6.014;2023-06-26T03:38:43;15.00;;;9.27;;
56161;SDS011;42045;52.986;6.014;2023-06-26T03:41:09;13.90;;;10.55;;
56161;SDS011;42045;52.986;6.014;2023-06-26T03:43:34;12.80;;;10.40;;
56161;SDS011;42045;52.986;6.014;2023-06-26T03:46:00;13.82;;;10.52;;
56161;SDS011;42045;52.986;6.014;2023-06-26T03:48:26;16.63;;;10.23;;
56161;SDS011;42045;52.986;6.014;2023-06-26T03:50:52;14.57;;;10.05;;
56161;SDS011;42045;52.986;6.014;2023-06-26T03:53:18;13.00;;;9.75;;
56161;SDS011;42045;52.986;6.014;2023-06-26T03:55:44;13.68;;;10.20;;
56161;SDS011;42045;52.986;6.014;2023-06-26T03:58:09;13.48;;;10.57;;
56161;SDS011;42045;52.986;6.014;2023-06-26T04:00:35;13.55;;;10.90;;
56161;SDS011;42045;52.986;6.014;2023-06-26T04:03:01;15.50;;;11.13;;
56161;SDS011;42045;52.986;6.014;2023-06-26T04:05:29;16.30;;;11.27;;
56161;SDS011;42045;52.986;6.014;2023-06-26T04:07:54;14.27;;;11.32;;
56161;SDS011;42045;52.986;6.014;2023-06-26T04:10:20;12.10;;;10.93;;
56161;SDS011;42045;52.986;6.014;2023-06-26T04:12:46;18.80;;;11.80;;
56161;SDS011;42045;52.986;6.014;2023-06-26T04:15:13;15.38;;;11.95;;
56161;SDS011;42045;52.986;6.014;2023-06-26T04:17:38;17.75;;;11.32;;
56161;SDS011;42045;52.986;6.014;2023-06-26T04:20:04;18.42;;;12.40;;
56161;SDS011;42045;52.986;6.014;2023-06-26T04:22:31;17.50;;;12.93;;
56161;SDS011;42045;52.986;6.014;2023-06-26T04:24:58;18.88;;;12.20;;
56161;SDS011;42045;52.986;6.014;2023-06-26T04:27:23;19.20;;;12.90;;
56161;SDS011;42045;52.986;6.014;2023-06-26T04:29:49;22.90;;;12.68;;
56161;SDS011;42045;52.986;6.014;2023-06-26T04:32:15;19.90;;;11.38;;
56161;SDS011;42045;52.986;6.014;2023-06-26T04:34:40;19.75;;;13.38;;
56161;SDS011;42045;52.986;6.014;2023-06-26T04:37:09;17.02;;;12.23;;
56161;SDS011;42045;52.986;6.014;2023-06-26T04:39:35;16.02;;;12.63;;
56161;SDS011;42045;52.986;6.014;2023-06-26T04:42:04;23.05;;;12.55;;
56161;SDS011;42045;52.986;6.014;2023-06-26T04:44:31;19.00;;;12.77;;
56161;SDS011;42045;52.986;6.014;2023-06-26T04:46:57;20.50;;;11.88;;
56161;SDS011;42045;52.986;6.014;2023-06-26T04:49:23;15.43;;;10.35;;
56161;SDS011;42045;52.986;6.014;2023-06-26T04:51:48;15.90;;;10.48;;
56161;SDS011;42045;52.986;6.014;2023-06-26T04:54:15;16.10;;;10.27;;
56161;SDS011;42045;52.986;6.014;2023-06-26T04:56:41;15.45;;;9.93;;
56161;SDS011;42045;52.986;6.014;2023-06-26T04:59:08;12.50;;;9.68;;
56161;SDS011;42045;52.986;6.014;2023-06-26T05:01:38;11.50;;;8.82;;
56161;SDS011;42045;52.986;6.014;2023-06-26T05:04:04;11.32;;;7.20;;
56161;SDS011;42045;52.986;6.014;2023-06-26T05:06:30;12.25;;;7.15;;
56161;SDS011;42045;52.986;6.014;2023-06-26T05:08:56;13.32;;;6.20;;
56161;SDS011;42045;52.986;6.014;2023-06-26T05:11:22;16.60;;;6.78;;
56161;SDS011;42045;52.986;6.014;2023-06-26T05:13:48;13.98;;;5.90;;
56161;SDS011;42045;52.986;6.014;2023-06-26T05:16:14;10.77;;;5.45;;
56161;SDS011;42045;52.986;6.014;2023-06-26T05:18:40;11.27;;;6.00;;
56161;SDS011;42045;52.986;6.014;2023-06-26T05:21:06;10.30;;;5.50;;
56161;SDS011;42045;52.986;6.014;2023-06-26T05:23:32;11.90;;;5.25;;
56161;SDS011;42045;52.986;6.014;2023-06-26T05:25:59;14.55;;;4.80;;
56161;SDS011;42045;52.986;6.014;2023-06-26T05:28:27;11.80;;;5.30;;
56161;SDS011;42045;52.986;6.014;2023-06-26T05:30:55;12.15;;;5.47;;
56161;SDS011;42045;52.986;6.014;2023-06-26T05:33:23;13.15;;;5.05;;
56161;SDS011;42045;52.986;6.014;2023-06-26T05:35:51;10.27;;;4.63;;
56161;SDS011;42045;52.986;6.014;2023-06-26T05:38:18;11.20;;;4.95;;
56161;SDS011;42045;52.986;6.014;2023-06-26T05:40:44;12.27;;;4.90;;
56161;SDS011;42045;52.986;6.014;2023-06-26T05:43:10;9.05;;;4.38;;
56161;SDS011;42045;52.986;6.014;2023-06-26T05:45:36;11.93;;;4.53;;
56161;SDS011;42045;52.986;6.014;2023-06-26T05:48:02;9.45;;;3.63;;
56161;SDS011;42045;52.986;6.014;2023-06-26T05:50:28;7.50;;;3.85;;
56161;SDS011;42045;52.986;6.014;2023-06-26T05:52:54;8.77;;;4.15;;
56161;SDS011;42045;52.986;6.014;2023-06-26T05:55:20;7.30;;;4.38;;
56161;SDS011;42045;52.986;6.014;2023-06-26T05:57:46;9.63;;;4.13;;
56161;SDS011;42045;52.986;6.014;2023-06-26T06:00:13;7.90;;;3.90;;
56161;SDS011;42045;52.986;6.014;2023-06-26T06:02:39;10.05;;;3.80;;
56161;SDS011;42045;52.986;6.014;2023-06-26T06:05:06;11.10;;;4.07;;
56161;SDS011;42045;52.986;6.014;2023-06-26T06:07:33;9.05;;;3.53;;
56161;SDS011;42045;52.986;6.014;2023-06-26T06:09:59;10.40;;;4.25;;
56161;SDS011;42045;52.986;6.014;2023-06-26T06:12:25;6.38;;;3.75;;
56161;SDS011;42045;52.986;6.014;2023-06-26T06:14:51;9.02;;;3.70;;
56161;SDS011;42045;52.986;6.014;2023-06-26T06:17:17;9.55;;;3.92;;
56161;SDS011;42045;52.986;6.014;2023-06-26T06:19:43;8.38;;;3.28;;
56161;SDS011;42045;52.986;6.014;2023-06-26T06:22:10;6.90;;;3.20;;
56161;SDS011;42045;52.986;6.014;2023-06-26T06:24:35;6.65;;;3.22;;
56161;SDS011;42045;52.986;6.014;2023-06-26T06:27:01;7.22;;;3.33;;
56161;SDS011;42045;52.986;6.014;2023-06-26T06:29:27;7.65;;;3.45;;
56161;SDS011;42045;52.986;6.014;2023-06-26T06:31:53;5.45;;;3.17;;
56161;SDS011;42045;52.986;6.014;2023-06-26T06:34:18;8.05;;;3.75;;
56161;SDS011;42045;52.986;6.014;2023-06-26T06:36:44;5.70;;;3.25;;
56161;SDS011;42045;52.986;6.014;2023-06-26T06:39:10;5.53;;;2.72;;
56161;SDS011;42045;52.986;6.014;2023-06-26T06:41:35;6.70;;;2.92;;
56161;SDS011;42045;52.986;6.014;2023-06-26T06:44:01;5.45;;;3.00;;
56161;SDS011;42045;52.986;6.014;2023-06-26T06:46:26;11.27;;;3.65;;
56161;SDS011;42045;52.986;6.014;2023-06-26T06:48:53;7.05;;;3.03;;
56161;SDS011;42045;52.986;6.014;2023-06-26T06:51:18;5.38;;;2.80;;
56161;SDS011;42045;52.986;6.014;2023-06-26T06:53:44;7.43;;;2.95;;
56161;SDS011;42045;52.986;6.014;2023-06-26T06:56:09;4.80;;;2.60;;
56161;SDS011;42045;52.986;6.014;2023-06-26T06:58:35;6.38;;;3.40;;
56161;SDS011;42045;52.986;6.014;2023-06-26T07:01:01;5.90;;;3.10;;
56161;SDS011;42045;52.986;6.014;2023-06-26T07:03:27;5.28;;;2.83;;
56161;SDS011;42045;52.986;6.014;2023-06-26T07:05:55;8.40;;;2.97;;
56161;SDS011;42045;52.986;6.014;2023-06-26T07:08:21;4.95;;;2.53;;
56161;SDS011;42045;52.986;6.014;2023-06-26T07:10:46;5.10;;;2.38;;
56161;SDS011;42045;52.986;6.014;2023-06-26T07:13:12;8.50;;;2.38;;
56161;SDS011;42045;52.986;6.014;2023-06-26T07:15:38;4.57;;;2.40;;
56161;SDS011;42045;52.986;6.014;2023-06-26T07:18:03;5.00;;;2.72;;
56161;SDS011;42045;52.986;6.014;2023-06-26T07:20:29;4.25;;;2.38;;
56161;SDS011;42045;52.986;6.014;2023-06-26T07:22:55;8.88;;;3.00;;
56161;SDS011;42045;52.986;6.014;2023-06-26T07:25:20;9.02;;;2.90;;
56161;SDS011;42045;52.986;6.014;2023-06-26T07:27:46;5.13;;;2.35;;
56161;SDS011;42045;52.986;6.014;2023-06-26T07:30:12;7.30;;;3.10;;
56161;SDS011;42045;52.986;6.014;2023-06-26T07:32:38;5.45;;;2.78;;
56161;SDS011;42045;52.986;6.014;2023-06-26T07:35:05;5.88;;;2.83;;
56161;SDS011;42045;52.986;6.014;2023-06-26T07:37:31;6.72;;;2.83;;
56161;SDS011;42045;52.986;6.014;2023-06-26T07:39:57;4.60;;;2.60;;
56161;SDS011;42045;52.986;6.014;2023-06-26T07:42:22;7.30;;;3.10;;
56161;SDS011;42045;52.986;6.014;2023-06-26T07:44:48;6.03;;;2.92;;
56161;SDS011;42045;52.986;6.014;2023-06-26T07:47:14;4.53;;;2.70;;
56161;SDS011;42045;52.986;6.014;2023-06-26T07:49:40;8.75;;;2.92;;
56161;SDS011;42045;52.986;6.014;2023-06-26T07:52:06;8.90;;;2.97;;
56161;SDS011;42045;52.986;6.014;2023-06-26T07:54:31;8.30;;;3.30;;
56161;SDS011;42045;52.986;6.014;2023-06-26T07:56:58;8.35;;;3.08;;
56161;SDS011;42045;52.986;6.014;2023-06-26T07:59:25;6.63;;;2.92;;
56161;SDS011;42045;52.986;6.014;2023-06-26T08:01:52;4.00;;;2.70;;
56161;SDS011;42045;52.986;6.014;2023-06-26T08:04:19;8.60;;;3.40;;
56161;SDS011;42045;52.986;6.014;2023-06-26T08:06:49;6.22;;;2.90;;
56161;SDS011;42045;52.986;6.014;2023-06-26T08:09:16;5.22;;;2.90;;
56161;SDS011;42045;52.986;6.014;2023-06-26T08:11:43;8.45;;;3.17;;
56161;SDS011;42045;52.986;6.014;2023-06-26T08:14:09;6.78;;;3.20;;
56161;SDS011;42045;52.986;6.014;2023-06-26T08:16:37;9.05;;;3.40;;
56161;SDS011;42045;52.986;6.014;2023-06-26T08:19:06;9.23;;;3.50;;
56161;SDS011;42045;52.986;6.014;2023-06-26T08:21:32;4.88;;;3.25;;
56161;SDS011;42045;52.986;6.014;2023-06-26T08:23:58;7.75;;;3.35;;
56161;SDS011;42045;52.986;6.014;2023-06-26T08:26:23;5.68;;;3.65;;
56161;SDS011;42045;52.986;6.014;2023-06-26T08:28:49;5.97;;;3.22;;
56161;SDS011;42045;52.986;6.014;2023-06-26T08:31:16;9.25;;;3.30;;
56161;SDS011;42045;52.986;6.014;2023-06-26T08:33:42;9.20;;;2.97;;
56161;SDS011;42045;52.986;6.014;2023-06-26T08:36:08;10.25;;;3.47;;
56161;SDS011;42045;52.986;6.014;2023-06-26T08:38:33;6.05;;;3.42;;
56161;SDS011;42045;52.986;6.014;2023-06-26T08:40:59;6.03;;;3.00;;
56161;SDS011;42045;52.986;6.014;2023-06-26T08:43:25;6.10;;;3.00;;
56161;SDS011;42045;52.986;6.014;2023-06-26T08:45:52;10.90;;;3.45;;
56161;SDS011;42045;52.986;6.014;2023-06-26T08:48:18;8.95;;;3.25;;
56161;SDS011;42045;52.986;6.014;2023-06-26T08:50:46;5.85;;;4.05;;
56161;SDS011;42045;52.986;6.014;2023-06-26T08:53:19;7.45;;;3.63;;
56161;SDS011;42045;52.986;6.014;2023-06-26T08:56:04;9.63;;;4.22;;
56161;SDS011;42045;52.986;6.014;2023-06-26T08:58:32;7.22;;;3.55;;
56161;SDS011;42045;52.986;6.014;2023-06-26T09:00:57;5.93;;;4.00;;
56161;SDS011;42045;52.986;6.014;2023-06-26T09:03:24;6.95;;;3.95;;
56161;SDS011;42045;52.986;6.014;2023-06-26T09:05:51;6.45;;;4.18;;
56161;SDS011;42045;52.986;6.014;2023-06-26T09:08:16;5.63;;;3.35;;
56161;SDS011;42045;52.986;6.014;2023-06-26T09:10:42;7.30;;;3.95;;
56161;SDS011;42045;52.986;6.014;2023-06-26T09:13:08;7.45;;;4.05;;
56161;SDS011;42045;52.986;6.014;2023-06-26T09:15:37;10.50;;;3.55;;
56161;SDS011;42045;52.986;6.014;2023-06-26T09:18:04;6.90;;;3.83;;
56161;SDS011;42045;52.986;6.014;2023-06-26T09:20:30;12.05;;;5.30;;
56161;SDS011;42045;52.986;6.014;2023-06-26T09:22:58;9.35;;;4.78;;
56161;SDS011;42045;52.986;6.014;2023-06-26T09:25:25;7.35;;;4.40;;
56161;SDS011;42045;52.986;6.014;2023-06-26T09:27:51;9.48;;;4.68;;
56161;SDS011;42045;52.986;6.014;2023-06-26T09:30:18;7.70;;;4.47;;
56161;SDS011;42045;52.986;6.014;2023-06-26T09:32:44;6.93;;;4.38;;
56161;SDS011;42045;52.986;6.014;2023-06-26T09:35:10;9.40;;;4.25;;
56161;SDS011;42045;52.986;6.014;2023-06-26T09:37:36;8.02;;;4.40;;
56161;SDS011;42045;52.986;6.014;2023-06-26T09:40:02;8.20;;;4.00;;
56161;SDS011;42045;52.986;6.014;2023-06-26T09:42:29;7.57;;;3.53;;
56161;SDS011;42045;52.986;6.014;2023-06-26T09:44:55;10.90;;;5.22;;
56161;SDS011;42045;52.986;6.014;2023-06-26T09:47:21;7.40;;;4.03;;
56161;SDS011;42045;52.986;6.014;2023-06-26T09:49:47;7.50;;;4.10;;
56161;SDS011;42045;52.986;6.014;2023-06-26T09:52:14;8.40;;;4.10;;
56161;SDS011;42045;52.986;6.014;2023-06-26T09:54:44;7.03;;;3.83;;
56161;SDS011;42045;52.986;6.014;2023-06-26T09:57:12;11.10;;;3.78;;
56161;SDS011;42045;52.986;6.014;2023-06-26T09:59:39;9.95;;;4.03;;
56161;SDS011;42045;52.986;6.014;2023-06-26T10:02:05;6.35;;;3.63;;
56161;SDS011;42045;52.986;6.014;2023-06-26T10:04:32;8.65;;;4.07;;
56161;SDS011;42045;52.986;6.014;2023-06-26T10:06:58;6.93;;;3.65;;
56161;SDS011;42045;52.986;6.014;2023-06-26T10:09:27;8.93;;;3.67;;
56161;SDS011;42045;52.986;6.014;2023-06-26T10:14:44;9.77;;;4.20;;
56161;SDS011;42045;52.986;6.014;2023-06-26T10:17:11;5.95;;;3.80;;
56161;SDS011;42045;52.986;6.014;2023-06-26T10:19:41;6.95;;;3.63;;
56161;SDS011;42045;52.986;6.014;2023-06-26T10:22:09;5.97;;;3.90;;
56161;SDS011;42045;52.986;6.014;2023-06-26T10:24:37;14.43;;;3.05;;
56161;SDS011;42045;52.986;6.014;2023-06-26T10:27:09;8.70;;;3.30;;
56161;SDS011;42045;52.986;6.014;2023-06-26T10:29:39;8.70;;;3.88;;
56161;SDS011;42045;52.986;6.014;2023-06-26T10:32:06;6.95;;;3.70;;
56161;SDS011;42045;52.986;6.014;2023-06-26T10:34:36;8.55;;;4.18;;
56161;SDS011;42045;52.986;6.014;2023-06-26T10:37:02;6.82;;;4.05;;
56161;SDS011;42045;52.986;6.014;2023-06-26T10:39:38;9.15;;;3.80;;
56161;SDS011;42045;52.986;6.014;2023-06-26T10:42:10;11.23;;;3.78;;
56161;SDS011;42045;52.986;6.014;2023-06-26T10:44:40;9.25;;;4.13;;
56161;SDS011;42045;52.986;6.014;2023-06-26T10:47:09;11.55;;;4.00;;
56161;SDS011;42045;52.986;6.014;2023-06-26T10:49:36;9.15;;;3.92;;
56161;SDS011;42045;52.986;6.014;2023-06-26T10:52:04;8.43;;;3.38;;
56161;SDS011;42045;52.986;6.014;2023-06-26T10:54:31;8.77;;;2.88;;
56161;SDS011;42045;52.986;6.014;2023-06-26T10:56:57;10.38;;;2.72;;
56161;SDS011;42045;52.986;6.014;2023-06-26T10:59:24;9.88;;;3.03;;
56161;SDS011;42045;52.986;6.014;2023-06-26T11:07:14;8.30;;;1.90;;
56161;SDS011;42045;52.986;6.014;2023-06-26T11:09:53;5.57;;;1.73;;
56161;SDS011;42045;52.986;6.014;2023-06-26T11:12:33;8.93;;;2.58;;
56161;SDS011;42045;52.986;6.014;2023-06-26T11:15:00;8.40;;;2.88;;
56161;SDS011;42045;52.986;6.014;2023-06-26T11:17:26;6.93;;;2.50;;
56161;SDS011;42045;52.986;6.014;2023-06-26T11:19:53;7.13;;;2.45;;
56161;SDS011;42045;52.986;6.014;2023-06-26T11:22:20;9.43;;;2.63;;
56161;SDS011;42045;52.986;6.014;2023-06-26T11:24:49;7.47;;;2.85;;
56161;SDS011;42045;52.986;6.014;2023-06-26T11:27:18;9.20;;;2.80;;
56161;SDS011;42045;52.986;6.014;2023-06-26T11:29:47;6.32;;;2.70;;
56161;SDS011;42045;52.986;6.014;2023-06-26T11:32:13;4.85;;;2.22;;
56161;SDS011;42045;52.986;6.014;2023-06-26T11:34:39;7.85;;;2.90;;
56161;SDS011;42045;52.986;6.014;2023-06-26T11:37:06;7.10;;;2.60;;
56161;SDS011;42045;52.986;6.014;2023-06-26T11:39:32;6.75;;;2.33;;
56161;SDS011;42045;52.986;6.014;2023-06-26T11:41:59;3.85;;;1.92;;
56161;SDS011;42045;52.986;6.014;2023-06-26T11:44:28;8.30;;;2.33;;
56161;SDS011;42045;52.986;6.014;2023-06-26T11:46:55;7.70;;;2.65;;
56161;SDS011;42045;52.986;6.014;2023-06-26T11:49:21;8.27;;;2.08;;
56161;SDS011;42045;52.986;6.014;2023-06-26T11:51:50;13.30;;;3.03;;
56161;SDS011;42045;52.986;6.014;2023-06-26T11:54:22;7.72;;;2.67;;
56161;SDS011;42045;52.986;6.014;2023-06-26T11:56:56;7.22;;;2.13;;
56161;SDS011;42045;52.986;6.014;2023-06-26T11:59:23;8.18;;;3.08;;
56161;SDS011;42045;52.986;6.014;2023-06-26T12:01:50;12.00;;;3.15;;
56161;SDS011;42045;52.986;6.014;2023-06-26T12:04:17;6.90;;;2.60;;
56161;SDS011;42045;52.986;6.014;2023-06-26T12:06:48;7.15;;;2.50;;
56161;SDS011;42045;52.986;6.014;2023-06-26T12:09:16;6.45;;;3.15;;
56161;SDS011;42045;52.986;6.014;2023-06-26T12:11:45;7.60;;;2.92;;
56161;SDS011;42045;52.986;6.014;2023-06-26T12:14:13;7.97;;;2.83;;
56161;SDS011;42045;52.986;6.014;2023-06-26T12:16:40;5.60;;;2.20;;
56161;SDS011;42045;52.986;6.014;2023-06-26T12:19:06;7.50;;;2.13;;
56161;SDS011;42045;52.986;6.014;2023-06-26T12:23:59;7.78;;;2.92;;
56161;SDS011;42045;52.986;6.014;2023-06-26T12:26:26;7.85;;;2.50;;
56161;SDS011;42045;52.986;6.014;2023-06-26T12:28:53;7.82;;;3.17;;
56161;SDS011;42045;52.986;6.014;2023-06-26T12:31:26;8.32;;;2.75;;
56161;SDS011;42045;52.986;6.014;2023-06-26T12:33:51;11.65;;;2.70;;
56161;SDS011;42045;52.986;6.014;2023-06-26T12:36:17;9.43;;;2.85;;
56161;SDS011;42045;52.986;6.014;2023-06-26T12:38:45;7.55;;;2.45;;
56161;SDS011;42045;52.986;6.014;2023-06-26T12:41:12;11.00;;;3.25;;
56161;SDS011;42045;52.986;6.014;2023-06-26T12:43:39;9.38;;;2.70;;
56161;SDS011;42045;52.986;6.014;2023-06-26T12:46:05;10.55;;;2.80;;
56161;SDS011;42045;52.986;6.014;2023-06-26T12:48:38;10.77;;;2.70;;
56161;SDS011;42045;52.986;6.014;2023-06-26T12:51:11;9.65;;;2.90;;
56161;SDS011;42045;52.986;6.014;2023-06-26T12:53:38;10.48;;;3.08;;
56161;SDS011;42045;52.986;6.014;2023-06-26T12:56:07;9.82;;;2.90;;
56161;SDS011;42045;52.986;6.014;2023-06-26T12:58:34;8.38;;;3.00;;
56161;SDS011;42045;52.986;6.014;2023-06-26T13:01:02;11.07;;;2.97;;
56161;SDS011;42045;52.986;6.014;2023-06-26T13:03:40;10.05;;;2.85;;
56161;SDS011;42045;52.986;6.014;2023-06-26T13:06:07;10.27;;;3.08;;
56161;SDS011;42045;52.986;6.014;2023-06-26T13:08:33;7.63;;;2.80;;
56161;SDS011;42045;52.986;6.014;2023-06-26T13:10:59;9.20;;;3.00;;
56161;SDS011;42045;52.986;6.014;2023-06-26T13:13:25;8.88;;;2.97;;
56161;SDS011;42045;52.986;6.014;2023-06-26T13:15:51;8.55;;;3.10;;
56161;SDS011;42045;52.986;6.014;2023-06-26T13:18:16;8.63;;;2.60;;
56161;SDS011;42045;52.986;6.014;2023-06-26T13:20:42;10.02;;;2.88;;
56161;SDS011;42045;52.986;6.014;2023-06-26T13:23:08;9.02;;;2.75;;
56161;SDS011;42045;52.986;6.014;2023-06-26T13:25:33;8.13;;;2.65;;
56161;SDS011;42045;52.986;6.014;2023-06-26T13:27:59;12.65;;;3.13;;
56161;SDS011;42045;52.986;6.014;2023-06-26T13:30:25;8.80;;;2.53;;
56161;SDS011;42045;52.986;6.014;2023-06-26T13:32:50;7.15;;;2.33;;
56161;SDS011;42045;52.986;6.014;2023-06-26T13:35:16;8.07;;;2.97;;
56161;SDS011;42045;52.986;6.014;2023-06-26T13:37:42;13.25;;;2.95;;
56161;SDS011;42045;52.986;6.014;2023-06-26T13:40:08;10.98;;;2.65;;
56161;SDS011;42045;52.986;6.014;2023-06-26T13:42:34;7.90;;;2.97;;
56161;SDS011;42045;52.986;6.014;2023-06-26T13:45:01;6.43;;;2.58;;
56161;SDS011;42045;52.986;6.014;2023-06-26T13:47:28;11.07;;;2.78;;
56161;SDS011;42045;52.986;6.014;2023-06-26T13:49:54;9.50;;;2.30;;
56161;SDS011;42045;52.986;6.014;2023-06-26T13:52:19;6.40;;;2.78;;
56161;SDS011;42045;52.986;6.014;2023-06-26T13:54:45;7.38;;;2.95;;
56161;SDS011;42045;52.986;6.014;2023-06-26T13:57:11;8.05;;;2.78;;
56161;SDS011;42045;52.986;6.014;2023-06-26T13:59:37;10.25;;;2.72;;
56161;SDS011;42045;52.986;6.014;2023-06-26T14:02:09;11.95;;;3.10;;
56161;SDS011;42045;52.986;6.014;2023-06-26T14:04:34;12.38;;;3.70;;
56161;SDS011;42045;52.986;6.014;2023-06-26T14:07:01;8.77;;;3.05;;
56161;SDS011;42045;52.986;6.014;2023-06-26T14:09:26;10.35;;;2.88;;
56161;SDS011;42045;52.986;6.014;2023-06-26T14:11:52;9.85;;;3.25;;
56161;SDS011;42045;52.986;6.014;2023-06-26T14:14:18;8.30;;;2.78;;
56161;SDS011;42045;52.986;6.014;2023-06-26T14:16:43;8.82;;;2.55;;
56161;SDS011;42045;52.986;6.014;2023-06-26T14:19:09;9.68;;;3.10;;
56161;SDS011;42045;52.986;6.014;2023-06-26T14:21:40;6.28;;;2.47;;
56161;SDS011;42045;52.986;6.014;2023-06-26T14:24:06;9.50;;;2.33;;
56161;SDS011;42045;52.986;6.014;2023-06-26T14:26:32;8.00;;;2.97;;
56161;SDS011;42045;52.986;6.014;2023-06-26T14:28:58;11.07;;;2.88;;
56161;SDS011;42045;52.986;6.014;2023-06-26T14:31:25;6.38;;;2.83;;
56161;SDS011;42045;52.986;6.014;2023-06-26T14:33:51;9.13;;;3.15;;
56161;SDS011;42045;52.986;6.014;2023-06-26T14:36:17;10.77;;;2.97;;
56161;SDS011;42045;52.986;6.014;2023-06-26T14:38:43;8.30;;;2.88;;
56161;SDS011;42045;52.986;6.014;2023-06-26T14:41:08;12.80;;;3.45;;
56161;SDS011;42045;52.986;6.014;2023-06-26T14:43:34;11.68;;;3.20;;
56161;SDS011;42045;52.986;6.014;2023-06-26T14:45:59;14.55;;;3.22;;
56161;SDS011;42045;52.986;6.014;2023-06-26T14:48:25;9.43;;;3.22;;
56161;SDS011;42045;52.986;6.014;2023-06-26T14:50:51;7.25;;;2.97;;
56161;SDS011;42045;52.986;6.014;2023-06-26T14:53:17;12.32;;;3.33;;
56161;SDS011;42045;52.986;6.014;2023-06-26T14:55:42;9.30;;;3.22;;